sensor_id;sensor_type;location;lat;lon;timestamp;pressure;altitude;pressure_sealevel;temperature;humidity
71778;BME280;59609;52.430;4.668;2023-04-22T00:02:13;100820.63;;;11.15;99.86
71778;BME280;59609;52.430;4.668;2023-04-22T00:04:41;100815.94;;;10.91;100.00
71778;BME280;59609;52.430;4.668;2023-04-22T00:07:06;100824.88;;;10.77;100.00
71778;BME280;59609;52.430;4.668;2023-04-22T00:09:32;100832.47;;;10.91;100.00
71778;BME280;59609;52.430;4.668;2023-04-22T00:11:57;100829.88;;;10.73;100.00
71778;BME280;59609;52.430;4.668;2023-04-22T00:14:23;100818.69;;;10.83;100.00
71778;BME280;59609;52.430;4.668;2023-04-22T00:16:48;100815.44;;;10.96;100.00
71778;BME280;59609;52.430;4.668;2023-04-22T00:19:14;100822.16;;;10.93;100.00
71778;BME280;59609;52.430;4.668;2023-04-22T00:21:40;100814.69;;;10.69;100.00
71778;BME280;59609;52.430;4.668;2023-04-22T00:24:05;100815.53;;;10.62;100.00
71778;BME280;59609;52.430;4.668;2023-04-22T00:26:31;100815.38;;;10.71;100.00
71778;BME280;59609;52.430;4.668;2023-04-22T00:28:56;100814.38;;;10.72;100.00
71778;BME280;59609;52.430;4.668;2023-04-22T00:31:22;100818.31;;;10.70;100.00
71778;BME280;59609;52.430;4.668;2023-04-22T00:33:47;100823.66;;;10.63;100.00
71778;BME280;59609;52.430;4.668;2023-04-22T00:36:12;100813.78;;;10.53;100.00
71778;BME280;59609;52.430;4.668;2023-04-22T00:38:38;100823.25;;;10.50;100.00
71778;BME280;59609;52.430;4.668;2023-04-22T00:41:03;100822.06;;;10.53;100.00
71778;BME280;59609;52.430;4.668;2023-04-22T00:43:29;100817.41;;;10.53;100.00
71778;BME280;59609;52.430;4.668;2023-04-22T00:45:56;100827.91;;;10.58;100.00
71778;BME280;59609;52.430;4.668;2023-04-22T00:48:23;100834.25;;;10.42;100.00
71778;BME280;59609;52.430;4.668;2023-04-22T00:50:48;100825.63;;;10.37;100.00
71778;BME280;59609;52.430;4.668;2023-04-22T00:53:14;100822.88;;;10.37;100.00
71778;BME280;59609;52.430;4.668;2023-04-22T00:55:39;100832.88;;;10.12;100.00
71778;BME280;59609;52.430;4.668;2023-04-22T00:58:05;100825.97;;;10.08;100.00
71778;BME280;59609;52.430;4.668;2023-04-22T01:00:31;100832.34;;;10.09;100.00
71778;BME280;59609;52.430;4.668;2023-04-22T01:02:56;100831.91;;;9.96;100.00
71778;BME280;59609;52.430;4.668;2023-04-22T01:05:23;100820.97;;;10.04;100.00
71778;BME280;59609;52.430;4.668;2023-04-22T01:07:49;100823.88;;;10.02;100.00
71778;BME280;59609;52.430;4.668;2023-04-22T01:10:15;100827.84;;;10.08;100.00
71778;BME280;59609;52.430;4.668;2023-04-22T01:12:41;100821.81;;;10.04;100.00
71778;BME280;59609;52.430;4.668;2023-04-22T01:15:06;100823.81;;;9.94;100.00
71778;BME280;59609;52.430;4.668;2023-04-22T01:17:33;100821.13;;;10.02;100.00
71778;BME280;59609;52.430;4.668;2023-04-22T01:19:58;100820.84;;;10.13;100.00
71778;BME280;59609;52.430;4.668;2023-04-22T01:22:31;100823.31;;;9.91;100.00
71778;BME280;59609;52.430;4.668;2023-04-22T01:24:59;100817.50;;;10.02;100.00
71778;BME280;59609;52.430;4.668;2023-04-22T01:27:25;100816.28;;;9.96;100.00
71778;BME280;59609;52.430;4.668;2023-04-22T01:29:50;100810.09;;;10.02;100.00
71778;BME280;59609;52.430;4.668;2023-04-22T01:32:17;100818.50;;;9.93;100.00
71778;BME280;59609;52.430;4.668;2023-04-22T01:34:42;100819.81;;;9.80;100.00
71778;BME280;59609;52.430;4.668;2023-04-22T01:37:08;100818.50;;;9.93;100.00
71778;BME280;59609;52.430;4.668;2023-04-22T01:39:34;100818.97;;;9.88;100.00
71778;BME280;59609;52.430;4.668;2023-04-22T01:41:59;100827.31;;;9.70;100.00
71778;BME280;59609;52.430;4.668;2023-04-22T01:44:26;100828.53;;;9.76;100.00
71778;BME280;59609;52.430;4.668;2023-04-22T01:46:51;100822.28;;;9.66;100.00
71778;BME280;59609;52.430;4.668;2023-04-22T01:49:16;100824.00;;;9.67;100.00
71778;BME280;59609;52.430;4.668;2023-04-22T01:51:42;100824.84;;;9.67;100.00
71778;BME280;59609;52.430;4.668;2023-04-22T01:54:08;100830.25;;;9.51;100.00
71778;BME280;59609;52.430;4.668;2023-04-22T01:56:34;100819.09;;;9.53;100.00
71778;BME280;59609;52.430;4.668;2023-04-22T01:58:59;100818.06;;;9.54;100.00
71778;BME280;59609;52.430;4.668;2023-04-22T02:01:24;100822.94;;;9.60;100.00
71778;BME280;59609;52.430;4.668;2023-04-22T02:03:50;100825.59;;;9.52;100.00
71778;BME280;59609;52.430;4.668;2023-04-22T02:06:15;100827.00;;;9.56;100.00
71778;BME280;59609;52.430;4.668;2023-04-22T02:08:41;100827.13;;;9.46;100.00
71778;BME280;59609;52.430;4.668;2023-04-22T02:11:06;100830.63;;;9.56;100.00
71778;BME280;59609;52.430;4.668;2023-04-22T02:13:36;100823.13;;;9.41;100.00
71778;BME280;59609;52.430;4.668;2023-04-22T02:16:02;100825.16;;;9.39;100.00
71778;BME280;59609;52.430;4.668;2023-04-22T02:18:28;100831.31;;;9.32;100.00
71778;BME280;59609;52.430;4.668;2023-04-22T02:20:53;100822.75;;;9.18;100.00
71778;BME280;59609;52.430;4.668;2023-04-22T02:23:18;100825.28;;;9.11;100.00
71778;BME280;59609;52.430;4.668;2023-04-22T02:25:48;100829.03;;;9.28;100.00
71778;BME280;59609;52.430;4.668;2023-04-22T02:28:14;100832.03;;;9.17;100.00
71778;BME280;59609;52.430;4.668;2023-04-22T02:30:39;100825.28;;;9.11;100.00
71778;BME280;59609;52.430;4.668;2023-04-22T02:33:05;100828.09;;;9.02;100.00
71778;BME280;59609;52.430;4.668;2023-04-22T02:35:30;100825.91;;;9.05;100.00
71778;BME280;59609;52.430;4.668;2023-04-22T02:37:56;100822.84;;;9.08;100.00
71778;BME280;59609;52.430;4.668;2023-04-22T02:40:21;100824.91;;;9.06;100.00
71778;BME280;59609;52.430;4.668;2023-04-22T02:42:46;100823.34;;;9.04;100.00
71778;BME280;59609;52.430;4.668;2023-04-22T02:45:12;100818.53;;;9.06;100.00
71778;BME280;59609;52.430;4.668;2023-04-22T02:47:38;100823.06;;;9.15;100.00
71778;BME280;59609;52.430;4.668;2023-04-22T02:50:05;100811.22;;;9.14;100.00
71778;BME280;59609;52.430;4.668;2023-04-22T02:52:32;100810.28;;;9.06;100.00
71778;BME280;59609;52.430;4.668;2023-04-22T02:54:58;100810.91;;;9.00;100.00
71778;BME280;59609;52.430;4.668;2023-04-22T02:57:23;100803.38;;;9.02;100.00
71778;BME280;59609;52.430;4.668;2023-04-22T02:59:48;100812.03;;;9.07;100.00
71778;BME280;59609;52.430;4.668;2023-04-22T03:02:14;100800.31;;;9.05;100.00
71778;BME280;59609;52.430;4.668;2023-04-22T03:04:39;100799.53;;;8.95;100.00
71778;BME280;59609;52.430;4.668;2023-04-22T03:07:05;100801.34;;;8.86;100.00
71778;BME280;59609;52.430;4.668;2023-04-22T03:09:30;100793.41;;;8.83;100.00
71778;BME280;59609;52.430;4.668;2023-04-22T03:11:55;100796.41;;;8.90;100.00
71778;BME280;59609;52.430;4.668;2023-04-22T03:14:21;100799.31;;;8.70;100.00
71778;BME280;59609;52.430;4.668;2023-04-22T03:16:46;100787.28;;;8.71;100.00
71778;BME280;59609;52.430;4.668;2023-04-22T03:19:12;100783.28;;;8.66;100.00
71778;BME280;59609;52.430;4.668;2023-04-22T03:21:37;100781.41;;;8.66;100.00
71778;BME280;59609;52.430;4.668;2023-04-22T03:24:02;100791.44;;;8.75;100.00
71778;BME280;59609;52.430;4.668;2023-04-22T03:26:28;100783.38;;;8.56;100.00
71778;BME280;59609;52.430;4.668;2023-04-22T03:28:53;100783.84;;;8.69;100.00
71778;BME280;59609;52.430;4.668;2023-04-22T03:31:18;100782.97;;;8.69;100.00
71778;BME280;59609;52.430;4.668;2023-04-22T03:33:44;100774.75;;;8.69;100.00
71778;BME280;59609;52.430;4.668;2023-04-22T03:36:09;100773.16;;;8.66;100.00
71778;BME280;59609;52.430;4.668;2023-04-22T03:38:35;100773.16;;;8.66;100.00
71778;BME280;59609;52.430;4.668;2023-04-22T03:41:00;100768.53;;;8.67;100.00
71778;BME280;59609;52.430;4.668;2023-04-22T03:43:25;100764.53;;;8.61;100.00
71778;BME280;59609;52.430;4.668;2023-04-22T03:45:51;100755.06;;;8.73;100.00
71778;BME280;59609;52.430;4.668;2023-04-22T03:48:16;100754.66;;;8.68;100.00
71778;BME280;59609;52.430;4.668;2023-04-22T03:50:41;100758.66;;;8.56;100.00
71778;BME280;59609;52.430;4.668;2023-04-22T03:53:07;100760.34;;;8.57;100.00
71778;BME280;59609;52.430;4.668;2023-04-22T03:55:32;100759.75;;;8.63;100.00
71778;BME280;59609;52.430;4.668;2023-04-22T03:57:58;100752.38;;;8.64;100.00
71778;BME280;59609;52.430;4.668;2023-04-22T04:00:23;100757.31;;;8.60;100.00
71778;BME280;59609;52.430;4.668;2023-04-22T04:02:49;100752.38;;;8.46;100.00
71778;BME280;59609;52.430;4.668;2023-04-22T04:05:14;100753.53;;;8.61;100.00
71778;BME280;59609;52.430;4.668;2023-04-22T04:07:39;100746.56;;;8.49;100.00
71778;BME280;59609;52.430;4.668;2023-04-22T04:10:05;100751.97;;;8.59;100.00
71778;BME280;59609;52.430;4.668;2023-04-22T04:12:31;100749.69;;;8.54;100.00
71778;BME280;59609;52.430;4.668;2023-04-22T04:14:56;100746.94;;;8.37;100.00
71778;BME280;59609;52.430;4.668;2023-04-22T04:17:22;100745.97;;;8.28;100.00
71778;BME280;59609;52.430;4.668;2023-04-22T04:19:50;100743.09;;;8.30;100.00
71778;BME280;59609;52.430;4.668;2023-04-22T04:22:16;100745.66;;;8.31;100.00
71778;BME280;59609;52.430;4.668;2023-04-22T04:24:42;100747.03;;;8.45;100.00
71778;BME280;59609;52.430;4.668;2023-04-22T04:27:08;100750.50;;;8.47;100.00
71778;BME280;59609;52.430;4.668;2023-04-22T04:29:34;100741.28;;;8.38;100.00
71778;BME280;59609;52.430;4.668;2023-04-22T04:32:00;100738.31;;;8.49;100.00
71778;BME280;59609;52.430;4.668;2023-04-22T04:34:25;100744.69;;;8.50;100.00
71778;BME280;59609;52.430;4.668;2023-04-22T04:36:51;100753.25;;;8.47;100.00
71778;BME280;59609;52.430;4.668;2023-04-22T04:39:16;100748.44;;;8.49;100.00
71778;BME280;59609;52.430;4.668;2023-04-22T04:41:41;100739.97;;;8.42;100.00
71778;BME280;59609;52.430;4.668;2023-04-22T04:44:08;100735.16;;;8.44;100.00
71778;BME280;59609;52.430;4.668;2023-04-22T04:46:34;100741.47;;;8.72;100.00
71778;BME280;59609;52.430;4.668;2023-04-22T04:49:02;100742.88;;;8.76;100.00
71778;BME280;59609;52.430;4.668;2023-04-22T04:51:28;100739.72;;;8.89;100.00
71778;BME280;59609;52.430;4.668;2023-04-22T04:53:56;100743.16;;;8.91;100.00
71778;BME280;59609;52.430;4.668;2023-04-22T04:56:22;100736.09;;;8.88;100.00
71778;BME280;59609;52.430;4.668;2023-04-22T04:58:47;100739.81;;;8.97;100.00
71778;BME280;59609;52.430;4.668;2023-04-22T05:01:13;100736.97;;;9.06;100.00
71778;BME280;59609;52.430;4.668;2023-04-22T05:03:38;100738.19;;;9.12;100.00
71778;BME280;59609;52.430;4.668;2023-04-22T05:06:04;100738.91;;;9.14;100.00
71778;BME280;59609;52.430;4.668;2023-04-22T05:08:29;100737.19;;;9.13;100.00
71778;BME280;59609;52.430;4.668;2023-04-22T05:10:55;100737.06;;;9.22;100.00
71778;BME280;59609;52.430;4.668;2023-04-22T05:13:20;100744.13;;;9.25;100.00
71778;BME280;59609;52.430;4.668;2023-04-22T05:15:46;100720.63;;;9.05;100.00
71778;BME280;59609;52.430;4.668;2023-04-22T05:18:12;100744.13;;;9.25;100.00
71778;BME280;59609;52.430;4.668;2023-04-22T05:20:37;100736.53;;;9.19;100.00
71778;BME280;59609;52.430;4.668;2023-04-22T05:23:02;100734.91;;;9.34;100.00
71778;BME280;59609;52.430;4.668;2023-04-22T05:25:28;100737.81;;;9.32;100.00
71778;BME280;59609;52.430;4.668;2023-04-22T05:27:53;100738.94;;;9.48;100.00
71778;BME280;59609;52.430;4.668;2023-04-22T05:30:19;100741.22;;;9.52;100.00
71778;BME280;59609;52.430;4.668;2023-04-22T05:32:44;100726.91;;;9.41;100.00
71778;BME280;59609;52.430;4.668;2023-04-22T05:35:09;100744.91;;;9.69;100.00
71778;BME280;59609;52.430;4.668;2023-04-22T05:37:35;100748.28;;;9.55;100.00
71778;BME280;59609;52.430;4.668;2023-04-22T05:40:00;100740.09;;;9.63;100.00
71778;BME280;59609;52.430;4.668;2023-04-22T05:42:26;100739.53;;;9.59;100.00
71778;BME280;59609;52.430;4.668;2023-04-22T05:44:51;100735.59;;;9.62;100.00
71778;BME280;59609;52.430;4.668;2023-04-22T05:47:16;100742.13;;;9.61;100.00
71778;BME280;59609;52.430;4.668;2023-04-22T05:49:42;100741.38;;;9.84;100.00
71778;BME280;59609;52.430;4.668;2023-04-22T05:52:07;100744.97;;;9.77;100.00
71778;BME280;59609;52.430;4.668;2023-04-22T05:54:32;100757.75;;;9.86;100.00
71778;BME280;59609;52.430;4.668;2023-04-22T05:56:58;100743.78;;;9.88;100.00
71778;BME280;59609;52.430;4.668;2023-04-22T05:59:23;100748.41;;;10.13;100.00
71778;BME280;59609;52.430;4.668;2023-04-22T06:01:49;100759.69;;;9.94;100.00
71778;BME280;59609;52.430;4.668;2023-04-22T06:04:15;100750.31;;;9.78;100.00
71778;BME280;59609;52.430;4.668;2023-04-22T06:06:40;100743.22;;;10.10;100.00
71778;BME280;59609;52.430;4.668;2023-04-22T06:09:05;100748.34;;;10.05;100.00
71778;BME280;59609;52.430;4.668;2023-04-22T06:11:32;100746.94;;;9.93;100.00
71778;BME280;59609;52.430;4.668;2023-04-22T06:13:57;100739.91;;;9.98;100.00
71778;BME280;59609;52.430;4.668;2023-04-22T06:16:23;100746.31;;;10.07;100.00
71778;BME280;59609;52.430;4.668;2023-04-22T06:18:48;100748.00;;;10.08;100.00
71778;BME280;59609;52.430;4.668;2023-04-22T06:21:13;100746.03;;;10.18;100.00
71778;BME280;59609;52.430;4.668;2023-04-22T06:23:39;100736.75;;;10.19;100.00
71778;BME280;59609;52.430;4.668;2023-04-22T06:26:05;100733.69;;;10.30;100.00
71778;BME280;59609;52.430;4.668;2023-04-22T06:28:30;100734.06;;;10.51;100.00
71778;BME280;59609;52.430;4.668;2023-04-22T06:30:55;100725.44;;;10.38;100.00
71778;BME280;59609;52.430;4.668;2023-04-22T06:33:21;100727.91;;;10.57;100.00
71778;BME280;59609;52.430;4.668;2023-04-22T06:35:46;100720.34;;;10.67;100.00
71778;BME280;59609;52.430;4.668;2023-04-22T06:38:11;100714.16;;;10.90;100.00
71778;BME280;59609;52.430;4.668;2023-04-22T06:40:37;100702.56;;;10.94;100.00
71778;BME280;59609;52.430;4.668;2023-04-22T06:43:02;100711.03;;;10.84;100.00
71778;BME280;59609;52.430;4.668;2023-04-22T06:45:28;100720.34;;;10.92;100.00
71778;BME280;59609;52.430;4.668;2023-04-22T06:47:54;100715.50;;;11.26;100.00
71778;BME280;59609;52.430;4.668;2023-04-22T06:50:19;100704.22;;;11.60;100.00
71778;BME280;59609;52.430;4.668;2023-04-22T06:52:45;100708.69;;;11.77;98.59
71778;BME280;59609;52.430;4.668;2023-04-22T06:55:10;100694.53;;;11.80;99.08
71778;BME280;59609;52.430;4.668;2023-04-22T06:57:35;100696.91;;;11.83;97.94
71778;BME280;59609;52.430;4.668;2023-04-22T07:00:02;100693.97;;;11.84;96.79
71778;BME280;59609;52.430;4.668;2023-04-22T07:02:28;100692.78;;;11.79;97.01
71778;BME280;59609;52.430;4.668;2023-04-22T07:04:53;100697.44;;;11.78;97.32
71778;BME280;59609;52.430;4.668;2023-04-22T07:07:19;100696.44;;;11.63;98.67
71778;BME280;59609;52.430;4.668;2023-04-22T07:09:44;100700.41;;;12.08;98.43
71778;BME280;59609;52.430;4.668;2023-04-22T07:12:10;100694.94;;;12.00;98.24
71778;BME280;59609;52.430;4.668;2023-04-22T07:14:36;100692.22;;;12.22;96.71
71778;BME280;59609;52.430;4.668;2023-04-22T07:17:01;100683.94;;;11.92;97.93
71778;BME280;59609;52.430;4.668;2023-04-22T07:19:27;100691.78;;;12.11;96.75
71778;BME280;59609;52.430;4.668;2023-04-22T07:21:52;100687.03;;;12.27;94.81
71778;BME280;59609;52.430;4.668;2023-04-22T07:24:18;100689.31;;;12.47;96.33
71778;BME280;59609;52.430;4.668;2023-04-22T07:26:43;100703.28;;;12.53;95.28
71778;BME280;59609;52.430;4.668;2023-04-22T07:29:09;100698.63;;;12.23;95.95
71778;BME280;59609;52.430;4.668;2023-04-22T07:31:35;100704.44;;;12.28;95.94
71778;BME280;59609;52.430;4.668;2023-04-22T07:34:01;100709.19;;;12.42;94.83
71778;BME280;59609;52.430;4.668;2023-04-22T07:36:27;100714.06;;;12.85;94.35
71778;BME280;59609;52.430;4.668;2023-04-22T07:38:52;100708.66;;;12.92;91.90
71778;BME280;59609;52.430;4.668;2023-04-22T07:41:17;100696.59;;;12.70;91.68
71778;BME280;59609;52.430;4.668;2023-04-22T07:43:43;100707.63;;;12.93;91.24
71778;BME280;59609;52.430;4.668;2023-04-22T07:46:08;100702.34;;;12.83;89.46
71778;BME280;59609;52.430;4.668;2023-04-22T07:48:33;100695.34;;;12.73;92.85
71778;BME280;59609;52.430;4.668;2023-04-22T07:50:59;100694.28;;;12.97;90.77
71778;BME280;59609;52.430;4.668;2023-04-22T07:53:25;100694.41;;;13.55;90.50
71778;BME280;59609;52.430;4.668;2023-04-22T07:55:50;100688.78;;;13.34;89.14
71778;BME280;59609;52.430;4.668;2023-04-22T07:58:16;100684.03;;;13.57;87.06
71778;BME280;59609;52.430;4.668;2023-04-22T08:00:41;100694.44;;;13.70;87.07
71778;BME280;59609;52.430;4.668;2023-04-22T08:03:06;100701.16;;;14.11;86.18
71778;BME280;59609;52.430;4.668;2023-04-22T08:05:32;100710.81;;;14.15;84.95
71778;BME280;59609;52.430;4.668;2023-04-22T08:07:57;100714.50;;;13.86;85.82
71778;BME280;59609;52.430;4.668;2023-04-22T08:10:23;100721.53;;;13.89;84.99
71778;BME280;59609;52.430;4.668;2023-04-22T08:12:48;100709.16;;;13.70;86.08
71778;BME280;59609;52.430;4.668;2023-04-22T08:15:14;100699.00;;;14.07;85.03
71778;BME280;59609;52.430;4.668;2023-04-22T08:17:39;100688.44;;;14.46;84.88
71778;BME280;59609;52.430;4.668;2023-04-22T08:20:05;100674.41;;;14.18;85.47
71778;BME280;59609;52.430;4.668;2023-04-22T08:22:31;100673.13;;;14.50;85.11
71778;BME280;59609;52.430;4.668;2023-04-22T08:24:58;100668.69;;;14.98;81.86
71778;BME280;59609;52.430;4.668;2023-04-22T08:27:23;100670.56;;;14.70;81.95
71778;BME280;59609;52.430;4.668;2023-04-22T08:29:49;100662.41;;;15.11;81.38
71778;BME280;59609;52.430;4.668;2023-04-22T08:32:14;100658.59;;;15.18;80.58
71778;BME280;59609;52.430;4.668;2023-04-22T08:34:40;100657.19;;;15.01;78.38
71778;BME280;59609;52.430;4.668;2023-04-22T08:37:05;100660.19;;;15.55;77.26
71778;BME280;59609;52.430;4.668;2023-04-22T08:39:31;100654.97;;;15.18;76.29
71778;BME280;59609;52.430;4.668;2023-04-22T08:41:56;100663.53;;;15.44;75.55
71778;BME280;59609;52.430;4.668;2023-04-22T08:44:22;100655.00;;;15.80;75.39
71778;BME280;59609;52.430;4.668;2023-04-22T08:46:48;100651.06;;;16.02;71.09
71778;BME280;59609;52.430;4.668;2023-04-22T08:49:14;100637.63;;;16.12;71.57
71778;BME280;59609;52.430;4.668;2023-04-22T08:51:40;100640.88;;;16.29;71.26
71778;BME280;59609;52.430;4.668;2023-04-22T08:54:06;100649.97;;;15.62;70.48
71778;BME280;59609;52.430;4.668;2023-04-22T08:56:32;100657.19;;;15.50;71.82
71778;BME280;59609;52.430;4.668;2023-04-22T08:58:58;100654.19;;;15.24;71.13
71778;BME280;59609;52.430;4.668;2023-04-22T09:01:25;100649.78;;;16.11;68.07
71778;BME280;59609;52.430;4.668;2023-04-22T09:03:53;100657.09;;;16.19;69.30
71778;BME280;59609;52.430;4.668;2023-04-22T09:06:22;100653.59;;;15.97;68.68
71778;BME280;59609;52.430;4.668;2023-04-22T09:08:48;100647.28;;;16.23;66.81
71778;BME280;59609;52.430;4.668;2023-04-22T09:11:15;100656.03;;;17.07;66.59
71778;BME280;59609;52.430;4.668;2023-04-22T09:13:41;100655.63;;;17.03;57.43
71778;BME280;59609;52.430;4.668;2023-04-22T09:16:06;100648.75;;;17.25;62.81
71778;BME280;59609;52.430;4.668;2023-04-22T09:18:39;100645.78;;;17.20;62.24
71778;BME280;59609;52.430;4.668;2023-04-22T09:21:04;100640.56;;;16.58;62.13
71778;BME280;59609;52.430;4.668;2023-04-22T09:23:30;100646.19;;;16.84;63.05
71778;BME280;59609;52.430;4.668;2023-04-22T09:25:56;100636.13;;;17.10;59.36
71778;BME280;59609;52.430;4.668;2023-04-22T09:28:21;100632.66;;;17.54;60.51
71778;BME280;59609;52.430;4.668;2023-04-22T09:30:47;100627.91;;;17.80;59.11
71778;BME280;59609;52.430;4.668;2023-04-22T09:33:12;100624.66;;;17.90;56.67
71778;BME280;59609;52.430;4.668;2023-04-22T09:35:40;100626.78;;;17.94;58.32
71778;BME280;59609;52.430;4.668;2023-04-22T09:38:07;100620.44;;;17.41;58.57
71778;BME280;59609;52.430;4.668;2023-04-22T09:40:34;100629.91;;;18.18;59.46
71778;BME280;59609;52.430;4.668;2023-04-22T09:43:02;100622.66;;;18.55;58.16
71778;BME280;59609;52.430;4.668;2023-04-22T09:45:35;100619.69;;;19.06;55.22
71778;BME280;59609;52.430;4.668;2023-04-22T09:48:12;100612.16;;;19.31;54.57
71778;BME280;59609;52.430;4.668;2023-04-22T09:50:42;100612.13;;;18.57;53.32
71778;BME280;59609;52.430;4.668;2023-04-22T09:53:10;100612.88;;;18.95;53.23
71778;BME280;59609;52.430;4.668;2023-04-22T09:55:38;100604.41;;;18.83;55.97
71778;BME280;59609;52.430;4.668;2023-04-22T09:58:15;100592.88;;;18.73;53.28
71778;BME280;59609;52.430;4.668;2023-04-22T10:00:45;100589.28;;;18.28;55.68
71778;BME280;59609;52.430;4.668;2023-04-22T10:03:12;100575.28;;;18.35;56.05
71778;BME280;59609;52.430;4.668;2023-04-22T10:05:38;100587.53;;;17.96;57.20
71778;BME280;59609;52.430;4.668;2023-04-22T10:08:04;100596.28;;;18.06;58.66
71778;BME280;59609;52.430;4.668;2023-04-22T10:10:30;100606.94;;;17.71;58.80
71778;BME280;59609;52.430;4.668;2023-04-22T10:12:56;100608.47;;;17.47;60.01
71778;BME280;59609;52.430;4.668;2023-04-22T10:15:22;100621.94;;;17.50;59.43
71778;BME280;59609;52.430;4.668;2023-04-22T10:17:49;100623.69;;;17.32;60.54
71778;BME280;59609;52.430;4.668;2023-04-22T10:20:17;100626.47;;;16.79;61.12
71778;BME280;59609;52.430;4.668;2023-04-22T10:22:45;100630.13;;;16.99;62.22
71778;BME280;59609;52.430;4.668;2023-04-22T10:25:24;100634.63;;;16.87;60.79
71778;BME280;59609;52.430;4.668;2023-04-22T10:28:01;100631.19;;;16.85;62.17
71778;BME280;59609;52.430;4.668;2023-04-22T10:30:32;100633.47;;;16.49;63.30
71778;BME280;59609;52.430;4.668;2023-04-22T10:36:20;100647.66;;;17.46;60.69
71778;BME280;59609;52.430;4.668;2023-04-22T10:41:22;100653.47;;;18.22;58.41
71778;BME280;59609;52.430;4.668;2023-04-22T10:43:55;100660.63;;;17.98;58.12
71778;BME280;59609;52.430;4.668;2023-04-22T10:49:12;100666.16;;;18.18;58.50
71778;BME280;59609;52.430;4.668;2023-04-22T10:51:47;100660.19;;;18.08;58.58
71778;BME280;59609;52.430;4.668;2023-04-22T10:57:06;100649.56;;;17.52;60.63
71778;BME280;59609;52.430;4.668;2023-04-22T10:59:33;100666.97;;;17.34;59.85
71778;BME280;59609;52.430;4.668;2023-04-22T11:02:11;100659.84;;;16.60;61.89
71778;BME280;59609;52.430;4.668;2023-04-22T11:04:37;100648.84;;;16.52;61.43
71778;BME280;59609;52.430;4.668;2023-04-22T11:10:07;100645.78;;;16.20;63.51
71778;BME280;59609;52.430;4.668;2023-04-22T11:14:59;100665.09;;;15.53;63.55
71778;BME280;59609;52.430;4.668;2023-04-22T11:17:25;100656.38;;;15.56;64.56
71778;BME280;59609;52.430;4.668;2023-04-22T11:19:50;100653.84;;;15.33;63.26
71778;BME280;59609;52.430;4.668;2023-04-22T11:22:23;100644.78;;;15.25;64.94
71778;BME280;59609;52.430;4.668;2023-04-22T11:24:56;100640.19;;;15.38;65.37
71778;BME280;59609;52.430;4.668;2023-04-22T11:27:22;100636.63;;;15.17;65.85
71778;BME280;59609;52.430;4.668;2023-04-22T11:30:04;100644.69;;;15.12;66.59
71778;BME280;59609;52.430;4.668;2023-04-22T11:32:32;100636.75;;;14.81;66.75
71778;BME280;59609;52.430;4.668;2023-04-22T11:35:02;100640.91;;;14.49;69.04
71778;BME280;59609;52.430;4.668;2023-04-22T11:37:29;100652.81;;;14.64;70.83
71778;BME280;59609;52.430;4.668;2023-04-22T11:40:00;100647.00;;;14.80;71.45
71778;BME280;59609;52.430;4.668;2023-04-22T11:42:26;100659.66;;;14.89;72.10
71778;BME280;59609;52.430;4.668;2023-04-22T11:44:51;100667.97;;;14.68;73.12
71778;BME280;59609;52.430;4.668;2023-04-22T11:47:17;100657.66;;;14.41;74.67
71778;BME280;59609;52.430;4.668;2023-04-22T11:50:23;100660.81;;;14.38;75.89
71778;BME280;59609;52.430;4.668;2023-04-22T11:52:52;100670.84;;;14.39;77.01
71778;BME280;59609;52.430;4.668;2023-04-22T11:55:29;100661.34;;;14.12;77.89
71778;BME280;59609;52.430;4.668;2023-04-22T11:57:57;100667.66;;;14.21;78.36
71778;BME280;59609;52.430;4.668;2023-04-22T12:00:49;100665.06;;;14.19;78.34
71778;BME280;59609;52.430;4.668;2023-04-22T12:03:18;100659.59;;;14.26;78.26
71778;BME280;59609;52.430;4.668;2023-04-22T12:08:21;100675.28;;;14.19;79.52
71778;BME280;59609;52.430;4.668;2023-04-22T12:10:50;100666.63;;;13.92;79.50
71778;BME280;59609;52.430;4.668;2023-04-22T12:13:23;100671.38;;;13.99;82.47
71778;BME280;59609;52.430;4.668;2023-04-22T12:15:54;100690.59;;;13.85;83.52
71778;BME280;59609;52.430;4.668;2023-04-22T12:18:35;100687.66;;;13.72;83.36
71778;BME280;59609;52.430;4.668;2023-04-22T12:21:10;100670.88;;;13.74;85.21
71778;BME280;59609;52.430;4.668;2023-04-22T12:23:53;100670.00;;;13.59;85.84
71778;BME280;59609;52.430;4.668;2023-04-22T12:26:20;100672.84;;;13.65;87.32
71778;BME280;59609;52.430;4.668;2023-04-22T12:28:46;100682.28;;;13.41;87.55
71778;BME280;59609;52.430;4.668;2023-04-22T12:31:13;100660.44;;;13.17;88.89
71778;BME280;59609;52.430;4.668;2023-04-22T12:33:39;100645.94;;;13.45;90.89
71778;BME280;59609;52.430;4.668;2023-04-22T12:36:05;100673.41;;;13.31;90.45
71778;BME280;59609;52.430;4.668;2023-04-22T12:38:30;100702.03;;;13.24;90.97
71778;BME280;59609;52.430;4.668;2023-04-22T12:40:56;100647.72;;;12.85;92.29
71778;BME280;59609;52.430;4.668;2023-04-22T12:43:21;100638.13;;;12.96;94.29
71778;BME280;59609;52.430;4.668;2023-04-22T12:45:47;100648.03;;;12.90;94.32
71778;BME280;59609;52.430;4.668;2023-04-22T12:48:12;100675.31;;;12.94;95.61
71778;BME280;59609;52.430;4.668;2023-04-22T12:50:39;100685.03;;;12.44;95.51
71778;BME280;59609;52.430;4.668;2023-04-22T12:53:04;100638.34;;;12.72;94.87
71778;BME280;59609;52.430;4.668;2023-04-22T12:55:30;100627.47;;;12.70;95.91
71778;BME280;59609;52.430;4.668;2023-04-22T12:57:55;100607.22;;;12.93;98.01
71778;BME280;59609;52.430;4.668;2023-04-22T13:00:22;100578.59;;;12.85;97.96
71778;BME280;59609;52.430;4.668;2023-04-22T13:02:48;100576.72;;;13.01;98.73
71778;BME280;59609;52.430;4.668;2023-04-22T13:05:15;100598.16;;;12.99;99.41